Time;durP1;ratioP1;P1;durP2;ratioP2;P2;SDS_P1;SDS_P2;PMS_P1;PMS_P2;Temp;Humidity;BMP_temperature;BMP_pressure;BME280_temperature;BME280_humidity;BME280_pressure;Samples;Min_cycle;Max_cycle;Signal;HPM_P1;HPM_P2
2022/12/31 00:01:01;;;;;;;1.48;0.70;;;;;;;19.32;49.34;100220.19;5000978;28;20034;-68
2022/12/31 00:03:26;;;;;;;1.55;0.68;;;;;;;19.31;49.35;100218.53;4985526;28;20041;-67
2022/12/31 00:05:51;;;;;;;1.85;0.80;;;;;;;19.28;49.30;100210.91;4982095;28;20026;-70
2022/12/31 00:08:17;;;;;;;2.05;0.90;;;;;;;19.29;49.08;100209.94;4983579;28;20414;-67
2022/12/31 00:10:42;;;;;;;1.95;0.63;;;;;;;19.28;49.09;100206.47;5001265;28;20394;-70
2022/12/31 00:13:09;;;;;;;1.33;0.70;;;;;;;19.26;49.32;100215.50;5001276;28;20072;-68
2022/12/31 00:15:35;;;;;;;1.73;0.70;;;;;;;19.25;49.38;100211.19;5001526;28;20041;-67
2022/12/31 00:18:00;;;;;;;2.60;0.80;;;;;;;19.28;49.49;100213.53;5001485;28;20033;-67
2022/12/31 00:20:25;;;;;;;0.90;0.50;;;;;;;19.27;49.52;100214.53;4990080;28;20034;-69
2022/12/31 00:22:51;;;;;;;1.13;0.65;;;;;;;19.26;49.45;100211.03;4985229;28;20038;-68
2022/12/31 00:25:16;;;;;;;2.17;0.70;;;;;;;19.25;49.42;100213.81;4981832;28;20049;-69
2022/12/31 00:27:41;;;;;;;1.27;0.60;;;;;;;19.22;49.53;100230.81;4981532;28;20038;-66
2022/12/31 00:30:07;;;;;;;1.55;0.80;;;;;;;19.19;49.62;100213.44;4982156;28;20046;-68
2022/12/31 00:32:33;;;;;;;1.35;0.63;;;;;;;19.17;49.78;100198.75;4985123;28;20109;-68
2022/12/31 00:34:58;;;;;;;1.13;0.70;;;;;;;19.18;49.64;100193.31;4990671;28;20172;-68
2022/12/31 00:37:23;;;;;;;1.63;0.70;;;;;;;19.13;49.66;100184.97;4983645;28;20050;-67
2022/12/31 00:39:48;;;;;;;1.23;0.60;;;;;;;19.17;49.63;100183.72;5001235;28;20387;-67
2022/12/31 00:42:14;;;;;;;1.60;0.70;;;;;;;19.18;49.51;100195.09;5002783;28;20037;-68
2022/12/31 00:44:39;;;;;;;1.00;0.60;;;;;;;19.20;49.75;100206.34;4994243;28;20088;-67
2022/12/31 00:47:04;;;;;;;1.05;0.55;;;;;;;19.13;49.69;100194.72;5005050;28;20291;-68
2022/12/31 00:49:29;;;;;;;1.67;0.60;;;;;;;19.18;49.69;100197.75;5003417;28;20030;-70
2022/12/31 00:51:55;;;;;;;2.05;0.60;;;;;;;19.12;49.49;100193.91;4988773;28;20049;-67
2022/12/31 00:54:20;;;;;;;1.98;0.70;;;;;;;19.17;49.96;100201.38;4985794;28;20415;-68
2022/12/31 00:56:45;;;;;;;1.48;0.70;;;;;;;19.14;49.90;100197.22;4985272;28;20030;-68
2022/12/31 00:59:11;;;;;;;1.05;0.50;;;;;;;19.15;49.80;100187.47;4999138;28;20037;-68
2022/12/31 01:01:38;;;;;;;1.10;0.60;;;;;;;19.11;49.92;100181.66;4990303;28;20038;-68
2022/12/31 01:04:07;;;;;;;2.08;0.50;;;;;;;19.10;49.91;100174.69;4995065;28;20274;-67
2022/12/31 01:06:32;;;;;;;1.77;0.80;;;;;;;19.11;49.89;100191.41;4994230;28;20022;-68
2022/12/31 01:08:58;;;;;;;1.30;0.63;;;;;;;19.10;49.91;100195.00;4991758;28;20030;-69
2022/12/31 01:11:27;;;;;;;1.52;0.55;;;;;;;19.08;49.83;100189.88;4989706;28;20109;-67
2022/12/31 01:14:02;;;;;;;1.05;0.50;;;;;;;19.08;49.93;100178.50;5004411;28;20034;-69
2022/12/31 01:16:31;;;;;;;0.85;0.50;;;;;;;19.06;50.02;100167.22;4995625;28;20117;-67
2022/12/31 01:19:03;;;;;;;1.17;0.50;;;;;;;19.05;50.29;100171.69;4985426;28;20026;-68
2022/12/31 01:21:29;;;;;;;1.35;0.50;;;;;;;19.10;50.14;100171.25;4991631;28;20038;-67
2022/12/31 01:23:54;;;;;;;0.70;0.50;;;;;;;19.06;50.10;100173.34;5001543;28;20148;-70
2022/12/31 01:26:20;;;;;;;1.60;0.60;;;;;;;19.06;50.14;100181.28;4994763;28;20042;-67
2022/12/31 01:28:46;;;;;;;1.05;0.57;;;;;;;19.06;50.02;100183.91;4999654;28;20038;-67
2022/12/31 01:31:14;;;;;;;1.23;0.52;;;;;;;19.06;49.91;100193.63;4990572;28;20040;-67
2022/12/31 01:33:40;;;;;;;1.55;0.60;;;;;;;19.06;50.01;100190.97;4992807;28;20542;-67
2022/12/31 01:36:20;;;;;;;1.40;0.60;;;;;;;19.02;50.30;100201.00;4998219;28;20137;-67
2022/12/31 01:38:45;;;;;;;1.17;0.50;;;;;;;19.02;50.22;100185.16;4988797;28;20052;-68
2022/12/31 01:41:17;;;;;;;1.60;0.60;;;;;;;19.03;50.11;100200.88;4996674;28;20467;-68
2022/12/31 01:43:52;;;;;;;1.80;0.55;;;;;;;19.04;50.29;100212.25;4995125;28;20264;-69
2022/12/31 01:46:41;;;;;;;1.17;0.50;;;;;;;19.05;49.96;100205.19;5002722;28;20045;-69
2022/12/31 01:49:19;;;;;;;0.98;0.50;;;;;;;19.02;50.43;100217.69;5002683;28;20034;-68
2022/12/31 01:51:49;;;;;;;0.90;0.50;;;;;;;19.02;50.04;100238.00;5000849;28;20474;-69
2022/12/31 01:54:19;;;;;;;1.27;0.50;;;;;;;19.01;50.18;100263.56;4982830;28;20065;-67
2022/12/31 01:56:46;;;;;;;1.10;0.40;;;;;;;19.01;50.16;100268.84;4986152;28;20049;-68
2022/12/31 01:59:15;;;;;;;0.85;0.50;;;;;;;19.01;50.12;100254.81;4996115;28;20616;-67
2022/12/31 02:01:41;;;;;;;0.75;0.40;;;;;;;18.99;50.16;100219.78;4999960;28;20141;-68
2022/12/31 02:04:11;;;;;;;0.68;0.40;;;;;;;18.95;50.14;100203.41;4982910;28;20129;-66
2022/12/31 02:06:52;;;;;;;0.65;0.40;;;;;;;18.98;50.33;100212.88;4983401;28;20069;-71
2022/12/31 02:09:18;;;;;;;0.90;0.47;;;;;;;18.98;50.19;100218.16;4983349;28;20066;-70
2022/12/31 02:11:44;;;;;;;1.60;0.43;;;;;;;18.98;50.34;100223.44;4983993;28;20471;-68
2022/12/31 02:14:16;;;;;;;0.40;0.40;;;;;;;18.89;50.37;100217.19;5002402;28;20034;-67
2022/12/31 02:16:54;;;;;;;0.73;0.40;;;;;;;18.96;50.41;100235.91;4984838;28;20084;-67
2022/12/31 02:19:28;;;;;;;0.93;0.50;;;;;;;18.96;50.60;100242.06;5002746;28;20474;-67
2022/12/31 02:22:07;;;;;;;0.95;0.43;;;;;;;18.96;50.48;100251.75;4993120;28;20490;-67
2022/12/31 02:24:54;;;;;;;1.17;0.40;;;;;;;18.95;50.30;100263.31;4996119;28;20045;-70
2022/12/31 02:27:39;;;;;;;1.17;0.50;;;;;;;18.94;50.62;100265.09;4983000;28;20034;-67
2022/12/31 02:30:07;;;;;;;0.88;0.50;;;;;;;18.95;50.37;100269.44;4998384;28;20401;-67
2022/12/31 02:32:46;;;;;;;0.70;0.40;;;;;;;18.93;50.57;100267.91;4990674;28;20376;-69
2022/12/31 02:35:36;;;;;;;0.98;0.40;;;;;;;18.94;50.52;100264.28;4956716;28;1054258;-69
2022/12/31 02:38:09;;;;;;;0.60;0.40;;;;;;;18.92;50.42;100272.34;4987086;28;20112;-68
2022/12/31 02:40:37;;;;;;;0.63;0.50;;;;;;;18.93;50.17;100279.31;4999983;28;20058;-68
2022/12/31 02:43:03;;;;;;;0.85;0.40;;;;;;;18.89;50.49;100272.63;4993713;28;20097;-71
2022/12/31 02:45:37;;;;;;;0.75;0.40;;;;;;;18.91;50.34;100283.88;4983477;28;20448;-68
2022/12/31 02:48:39;;;;;;;0.98;0.43;;;;;;;18.91;50.48;100293.63;4990440;28;20050;-67
2022/12/31 02:51:36;;;;;;;1.40;0.47;;;;;;;18.91;50.63;100281.25;4994665;28;20049;-69
2022/12/31 02:54:11;;;;;;;1.17;0.50;;;;;;;18.90;50.57;100271.66;5001318;28;20375;-67
2022/12/31 02:56:46;;;;;;;0.95;0.40;;;;;;;18.86;50.51;100257.09;5003276;28;20099;-68
2022/12/31 03:02:14;;;;;;;0.82;0.40;;;;;;;18.89;50.27;100263.91;4983127;28;20104;-68
2022/12/31 03:04:50;;;;;;;0.73;0.30;;;;;;;18.84;50.66;100256.41;4981953;28;20038;-68
2022/12/31 03:07:22;;;;;;;0.65;0.32;;;;;;;18.85;50.40;100250.97;4983448;28;20046;-68
2022/12/31 03:09:48;;;;;;;0.88;0.40;;;;;;;18.87;50.64;100250.84;4983228;28;20034;-70
2022/12/31 03:14:57;;;;;;;0.80;0.50;;;;;;;18.87;50.51;100250.84;4982860;28;20510;-68
2022/12/31 03:17:23;;;;;;;0.70;0.40;;;;;;;18.81;50.61;100231.06;4983146;28;20035;-67
2022/12/31 03:22:39;;;;;;;0.55;0.38;;;;;;;18.83;50.63;100236.22;4987835;28;20075;-67
2022/12/31 03:27:53;;;;;;;0.75;0.50;;;;;;;18.84;50.43;100235.28;5000409;28;20224;-67
2022/12/31 03:30:21;;;;;;;1.55;0.40;;;;;;;18.81;50.66;100231.06;4992735;28;20030;-66
2022/12/31 03:32:49;;;;;;;0.73;0.40;;;;;;;18.80;50.48;100229.44;4984618;28;20037;-69
2022/12/31 03:35:18;;;;;;;1.67;0.30;;;;;;;18.81;50.82;100232.91;4983788;28;20053;-68
2022/12/31 03:37:43;;;;;;;0.45;0.30;;;;;;;18.82;50.63;100218.72;4998207;28;20038;-70
2022/12/31 03:40:11;;;;;;;1.17;0.70;;;;;;;18.81;50.73;100215.25;4982288;28;20034;-68
2022/12/31 03:42:36;;;;;;;0.60;0.30;;;;;;;18.81;50.40;100209.97;4997474;28;20411;-67
2022/12/31 03:45:02;;;;;;;1.38;0.43;;;;;;;18.77;50.60;100202.47;4993403;28;20459;-70
2022/12/31 03:47:28;;;;;;;0.60;0.30;;;;;;;18.77;50.47;100202.47;5002087;28;21069;-66
2022/12/31 03:49:53;;;;;;;0.93;0.40;;;;;;;18.79;50.58;100198.72;5002275;28;20113;-70
2022/12/31 03:52:18;;;;;;;0.25;0.22;;;;;;;18.77;50.68;100191.91;5000564;28;20451;-68
2022/12/31 03:54:44;;;;;;;1.02;0.43;;;;;;;18.76;50.69;100195.53;4991162;28;20048;-66
2022/12/31 03:57:09;;;;;;;0.75;0.40;;;;;;;18.77;50.68;100197.19;4989371;28;20046;-67
2022/12/31 03:59:34;;;;;;;1.20;0.38;;;;;;;18.76;50.57;100188.44;4993926;28;20062;-67
2022/12/31 04:02:00;;;;;;;0.30;0.30;;;;;;;18.78;50.81;100186.50;4996801;28;20434;-67
2022/12/31 04:04:25;;;;;;;0.63;0.40;;;;;;;18.77;50.73;100191.91;4989295;28;20041;-67
2022/12/31 04:06:50;;;;;;;0.75;0.40;;;;;;;18.78;50.77;100196.22;4993500;28;20038;-68
2022/12/31 04:09:16;;;;;;;0.40;0.30;;;;;;;18.76;50.55;100193.72;4984817;28;20133;-68
2022/12/31 04:11:41;;;;;;;0.98;0.40;;;;;;;18.74;50.58;100184.28;4996131;28;20140;-68
2022/12/31 04:14:06;;;;;;;0.77;0.40;;;;;;;18.66;50.78;100170.00;4985065;28;20390;-67
2022/12/31 04:16:32;;;;;;;0.68;0.40;;;;;;;18.77;50.71;100184.84;4993323;28;20350;-68
2022/12/31 04:18:57;;;;;;;1.05;0.40;;;;;;;18.76;50.64;100192.91;5001566;28;20131;-66
2022/12/31 04:21:23;;;;;;;1.17;0.40;;;;;;;18.75;50.91;100186.78;4991321;28;20577;-68
2022/12/31 04:23:48;;;;;;;0.30;0.30;;;;;;;18.73;50.87;100180.81;4993164;28;20041;-67
2022/12/31 04:26:14;;;;;;;1.52;0.85;;;;;;;18.75;50.68;100176.22;4984073;28;20027;-67
2022/12/31 04:28:39;;;;;;;0.40;0.30;;;;;;;18.76;50.54;100166.50;4983996;28;20045;-67
2022/12/31 04:31:04;;;;;;;1.33;0.50;;;;;;;18.76;50.67;100171.78;4983740;28;20463;-68
2022/12/31 04:33:29;;;;;;;0.85;0.40;;;;;;;18.76;50.60;100171.78;4982045;28;20042;-67
2022/12/31 04:36:03;;;;;;;1.85;0.80;;;;;;;18.72;50.69;100165.94;4996016;28;21023;-69
2022/12/31 04:38:29;;;;;;;0.38;0.35;;;;;;;18.77;50.60;100152.31;4998529;28;20041;-67
2022/12/31 04:43:38;;;;;;;;;;;;;;;18.83;50.85;100157.88;4985673;28;20395;-69
2022/12/31 04:46:04;;;;;;;0.60;0.40;;;;;;;18.76;50.96;100164.69;4985367;28;19917;-67
2022/12/31 04:48:29;;;;;;;0.65;0.40;;;;;;;18.77;50.67;100176.94;4997279;28;20372;-68
2022/12/31 04:50:54;;;;;;;1.02;0.60;;;;;;;18.74;50.94;100177.22;4981709;28;20045;-66
2022/12/31 04:53:20;;;;;;;1.02;0.35;;;;;;;18.75;50.96;100185.94;4982822;28;20045;-66
2022/12/31 04:55:45;;;;;;;1.05;0.50;;;;;;;18.75;51.04;100188.59;4983580;28;20467;-67
2022/12/31 04:58:10;;;;;;;0.60;0.30;;;;;;;18.75;51.24;100197.34;4994951;28;21002;-68
2022/12/31 05:00:36;;;;;;;0.88;0.30;;;;;;;18.73;51.33;100193.19;4989930;28;20465;-70
2022/12/31 05:03:01;;;;;;;0.98;0.40;;;;;;;18.73;51.46;100204.56;4991611;28;20030;-66
2022/12/31 05:05:26;;;;;;;0.30;0.30;;;;;;;18.75;51.52;100204.44;4997661;28;20046;-67
2022/12/31 05:07:52;;;;;;;1.15;0.40;;;;;;;18.75;51.46;100215.00;4988750;28;20042;-66
2022/12/31 05:10:17;;;;;;;1.35;0.50;;;;;;;18.72;51.40;100202.06;4989023;28;20545;-67
2022/12/31 05:12:42;;;;;;;1.23;0.40;;;;;;;18.73;51.50;100199.28;4985727;28;20041;-67
2022/12/31 05:15:08;;;;;;;0.77;0.40;;;;;;;18.74;51.69;100206.25;4991639;28;20284;-68
2022/12/31 05:17:33;;;;;;;1.50;0.50;;;;;;;18.70;51.69;100206.69;4997110;28;20265;-66
2022/12/31 05:19:59;;;;;;;0.70;0.30;;;;;;;18.70;51.80;100223.34;5000875;28;20497;-66
2022/12/31 05:22:30;;;;;;;0.60;0.28;;;;;;;18.71;51.83;100217.09;4992089;28;20402;-66
2022/12/31 05:24:57;;;;;;;0.85;0.40;;;;;;;18.70;51.84;100225.16;4981607;28;20129;-66
2022/12/31 05:27:22;;;;;;;0.85;0.40;;;;;;;18.65;51.79;100218.47;4982148;28;20089;-67
2022/12/31 05:29:48;;;;;;;0.80;0.50;;;;;;;18.68;52.03;100225.28;4985072;28;20469;-68
2022/12/31 05:32:13;;;;;;;0.80;0.40;;;;;;;18.72;52.04;100228.47;4997103;28;20030;-69
2022/12/31 05:34:38;;;;;;;1.40;0.50;;;;;;;18.71;52.15;100237.34;4996243;28;20506;-67
2022/12/31 05:37:04;;;;;;;2.10;0.40;;;;;;;18.69;52.02;100234.84;4989375;28;21099;-66
2022/12/31 05:39:29;;;;;;;1.63;0.55;;;;;;;18.70;52.20;100248.91;5004374;28;20500;-68
2022/12/31 05:41:54;;;;;;;0.52;0.30;;;;;;;18.66;51.97;100246.56;5003963;28;20069;-69
2022/12/31 05:44:19;;;;;;;0.70;0.30;;;;;;;18.71;52.03;100242.63;5003478;28;20046;-70
2022/12/31 05:46:46;;;;;;;1.80;1.10;;;;;;;18.70;51.44;100230.44;5000430;28;20142;-67
2022/12/31 05:49:11;;;;;;;1.95;0.50;;;;;;;18.66;52.43;100241.28;4984744;28;20271;-67
2022/12/31 05:51:36;;;;;;;0.63;0.40;;;;;;;18.70;52.26;100239.16;4990981;28;20029;-67
2022/12/31 05:54:02;;;;;;;0.52;0.30;;;;;;;18.70;52.22;100238.34;5003795;28;20054;-68
2022/12/31 05:56:27;;;;;;;1.08;0.38;;;;;;;18.67;52.40;100237.66;4988744;28;20210;-68
2022/12/31 05:58:52;;;;;;;0.77;0.40;;;;;;;18.68;52.38;100236.69;5004038;28;20479;-68
2022/12/31 06:01:17;;;;;;;0.70;0.30;;;;;;;18.69;52.33;100234.84;5003773;28;20033;-69
2022/12/31 06:03:43;;;;;;;1.60;0.43;;;;;;;18.70;52.47;100246.28;4987873;28;20272;-68
2022/12/31 06:06:08;;;;;;;1.27;0.47;;;;;;;18.68;52.41;100251.69;4989582;28;20837;-68
2022/12/31 06:08:33;;;;;;;0.95;0.40;;;;;;;18.68;52.28;100268.34;4985964;28;20062;-69
2022/12/31 06:10:59;;;;;;;0.80;0.30;;;;;;;18.65;52.28;100258.06;4991949;28;20220;-67
2022/12/31 06:13:24;;;;;;;1.15;0.40;;;;;;;18.68;52.17;100262.25;4988820;28;20475;-71
2022/12/31 06:15:49;;;;;;;1.37;0.40;;;;;;;18.66;51.99;100266.84;4988386;28;20301;-68
2022/12/31 06:18:14;;;;;;;0.65;0.30;;;;;;;18.70;51.67;100267.38;4993338;28;20259;-68
2022/12/31 06:20:40;;;;;;;2.00;0.50;;;;;;;18.67;51.47;100258.78;4998719;28;20647;-67
2022/12/31 06:23:05;;;;;;;1.52;0.57;;;;;;;18.68;51.63;100272.81;4991194;28;20271;-68
2022/12/31 06:25:30;;;;;;;1.00;0.45;;;;;;;18.70;51.62;100270.03;4983552;28;20026;-68
2022/12/31 06:27:56;;;;;;;1.77;0.40;;;;;;;18.74;52.09;100281.94;4990272;28;20037;-67
2022/12/31 06:30:21;;;;;;;1.48;0.43;;;;;;;18.74;52.18;100272.25;4985088;28;20030;-68
2022/12/31 06:32:46;;;;;;;0.90;0.40;;;;;;;18.74;52.37;100274.03;4998053;28;20108;-70
2022/12/31 06:35:12;;;;;;;1.63;0.52;;;;;;;18.77;52.29;100281.66;4986195;28;20037;-68
2022/12/31 06:37:37;;;;;;;1.15;0.40;;;;;;;18.80;52.41;100282.22;4987107;28;20120;-69
2022/12/31 06:40:03;;;;;;;0.73;0.40;;;;;;;18.82;52.42;100271.53;5001751;28;20045;-67
2022/12/31 06:42:30;;;;;;;0.77;0.40;;;;;;;18.84;52.61;100283.63;4999731;28;20030;-69
2022/12/31 06:44:56;;;;;;;1.23;0.35;;;;;;;18.90;52.47;100278.75;4996612;28;20153;-70
2022/12/31 06:47:21;;;;;;;0.93;0.40;;;;;;;18.93;52.40;100281.94;5002724;28;20069;-71
2022/12/31 06:49:47;;;;;;;0.93;0.35;;;;;;;18.98;52.54;100286.81;4990795;28;20149;-68
2022/12/31 06:52:12;;;;;;;0.67;0.50;;;;;;;19.01;52.45;100282.06;4984263;28;20038;-67
2022/12/31 06:54:37;;;;;;;1.88;0.60;;;;;;;19.02;52.35;100278.41;4991831;28;21087;-68
2022/12/31 06:57:03;;;;;;;1.17;0.40;;;;;;;19.03;52.31;100289.84;4997452;28;20045;-68
2022/12/31 06:59:29;;;;;;;1.67;0.40;;;;;;;19.08;52.58;100282.31;4982715;28;20448;-66
2022/12/31 07:02:12;;;;;;;1.27;0.32;;;;;;;19.08;52.26;100269.09;5000076;28;20129;-67
2022/12/31 07:04:59;;;;;;;1.27;0.40;;;;;;;19.12;52.25;100282.84;4992491;28;20041;-67
2022/12/31 07:07:33;;;;;;;2.03;0.60;;;;;;;19.11;52.26;100283.84;4982885;28;20042;-67
2022/12/31 07:10:34;;;;;;;0.47;0.30;;;;;;;19.15;52.09;100287.84;4994458;28;20040;-66
2022/12/31 07:13:06;;;;;;;0.63;0.32;;;;;;;19.16;52.04;100281.59;5000391;28;20129;-70
2022/12/31 07:15:59;;;;;;;2.08;0.47;;;;;;;19.16;52.22;100289.50;5002329;28;20029;-67
2022/12/31 07:18:43;;;;;;;1.33;0.50;;;;;;;19.16;52.18;100302.72;4986784;28;20034;-69
2022/12/31 07:21:17;;;;;;;1.17;0.40;;;;;;;19.13;52.24;100295.91;4983045;28;20117;-70
2022/12/31 07:23:42;;;;;;;1.27;0.30;;;;;;;19.13;52.18;100276.59;4981215;28;20705;-67
2022/12/31 07:26:21;;;;;;;1.77;0.50;;;;;;;19.15;52.20;100293.97;5001526;28;20072;-69
2022/12/31 07:28:59;;;;;;;0.73;0.30;;;;;;;19.12;52.13;100298.69;4986913;28;20041;-66
2022/12/31 07:31:49;;;;;;;1.25;0.40;;;;;;;19.16;52.01;100287.69;5001933;28;20538;-68
2022/12/31 07:34:42;;;;;;;1.15;0.40;;;;;;;19.15;52.26;100307.19;4992236;28;20034;-68
2022/12/31 07:37:32;;;;;;;2.33;0.65;;;;;;;19.12;52.24;100288.97;4981081;28;20414;-67
2022/12/31 07:40:31;;;;;;;1.40;0.40;;;;;;;19.16;52.08;100306.19;4998644;28;20501;-66
2022/12/31 07:43:16;;;;;;;1.40;0.40;;;;;;;19.12;52.21;100290.75;5002096;28;20037;-68
2022/12/31 07:46:14;;;;;;;2.00;0.57;;;;;;;19.13;52.27;100305.66;5002110;28;20534;-68
2022/12/31 07:48:40;;;;;;;1.98;0.40;;;;;;;19.13;52.10;100313.56;5002032;28;20413;-67
2022/12/31 07:51:09;;;;;;;1.30;0.50;;;;;;;19.11;52.22;100307.59;4998395;28;20036;-67
2022/12/31 07:53:34;;;;;;;1.42;0.40;;;;;;;19.11;52.25;100294.41;4983459;28;20049;-67
2022/12/31 07:56:06;;;;;;;1.80;0.40;;;;;;;19.10;52.47;100300.66;4989455;28;20046;-69
2022/12/31 07:58:49;;;;;;;3.38;0.50;;;;;;;19.12;52.13;100296.03;4983465;28;20070;-67
2022/12/31 08:01:28;;;;;;;0.60;0.40;;;;;;;19.10;52.15;100293.56;4982008;28;20080;-68
2022/12/31 08:03:57;;;;;;;1.45;0.50;;;;;;;19.09;52.34;100297.19;4981871;28;20045;-68
2022/12/31 08:06:35;;;;;;;1.08;0.40;;;;;;;19.12;52.26;100319.81;4985834;28;20037;-68
2022/12/31 08:09:22;;;;;;;1.05;0.40;;;;;;;19.11;52.39;100337.50;4982079;28;20030;-71
2022/12/31 08:11:56;;;;;;;0.68;0.40;;;;;;;19.09;52.30;100360.56;4982105;28;20543;-68
2022/12/31 08:14:22;;;;;;;1.60;0.52;;;;;;;19.11;52.69;100355.16;4981842;28;20780;-67
2022/12/31 08:16:48;;;;;;;2.35;0.50;;;;;;;19.09;52.84;100357.09;4992847;28;20544;-68
2022/12/31 08:19:24;;;;;;;1.48;0.63;;;;;;;19.10;52.97;100379.88;4999937;28;20506;-69
2022/12/31 08:22:08;;;;;;;0.70;0.40;;;;;;;19.14;52.80;100381.28;5000442;28;20034;-70
2022/12/31 08:24:44;;;;;;;0.60;0.30;;;;;;;19.14;53.09;100381.28;4986378;28;20037;-72
2022/12/31 08:27:32;;;;;;;1.88;0.65;;;;;;;19.11;53.51;100385.03;4985218;28;20446;-68
2022/12/31 08:30:08;;;;;;;1.33;0.40;;;;;;;19.17;53.75;100395.03;4994428;28;20040;-71
2022/12/31 08:32:42;;;;;;;1.55;0.55;;;;;;;19.14;53.38;100413.81;4983530;28;20044;-68
2022/12/31 08:35:25;;;;;;;2.73;0.57;;;;;;;19.19;53.51;100416.84;4981848;28;21140;-69
2022/12/31 08:38:14;;;;;;;2.60;0.70;;;;;;;19.20;53.72;100422.94;4981763;28;20275;-69
2022/12/31 08:41:00;;;;;;;1.80;0.50;;;;;;;19.19;53.67;100427.41;4981787;28;20070;-70
2022/12/31 08:43:31;;;;;;;2.90;0.55;;;;;;;19.20;53.75;100433.50;4984530;28;20030;-70
2022/12/31 08:45:58;;;;;;;4.03;0.65;;;;;;;19.18;53.74;100440.75;5001290;28;20034;-71
2022/12/31 08:48:36;;;;;;;2.25;0.60;;;;;;;19.17;53.80;100421.44;4986542;28;20137;-68
2022/12/31 08:51:02;;;;;;;2.03;0.50;;;;;;;19.22;53.91;100434.22;4981899;28;20034;-70
2022/12/31 08:53:27;;;;;;;2.92;0.60;;;;;;;19.23;54.00;100443.81;4993437;28;20402;-73
2022/12/31 08:56:04;;;;;;;1.95;0.60;;;;;;;19.20;54.07;100450.22;4985274;28;20041;-70
2022/12/31 08:58:58;;;;;;;1.30;0.60;;;;;;;19.25;53.97;100486.78;4983668;28;20570;-68
2022/12/31 09:01:29;;;;;;;1.73;0.60;;;;;;;19.22;54.04;100465.94;5001022;28;20034;-70
2022/12/31 09:04:04;;;;;;;2.83;0.70;;;;;;;19.27;54.02;100484.81;5003436;28;20030;-70
2022/12/31 09:06:39;;;;;;;3.13;0.70;;;;;;;19.25;54.09;100478.00;4991757;28;20030;-71
2022/12/31 09:09:15;;;;;;;1.60;0.60;;;;;;;19.27;54.04;100498.03;4992484;28;20066;-73
2022/12/31 09:11:56;;;;;;;1.88;0.70;;;;;;;19.25;54.11;100494.72;4989925;28;20467;-68
2022/12/31 09:14:42;;;;;;;2.78;0.73;;;;;;;19.29;54.30;100506.66;5004599;28;20069;-69
2022/12/31 09:17:41;;;;;;;4.05;0.90;;;;;;;19.29;54.14;100511.94;5004693;28;20061;-70
2022/12/31 09:20:14;;;;;;;3.35;0.70;;;;;;;19.27;54.34;100515.72;4991490;28;20442;-67
2022/12/31 09:22:40;;;;;;;3.35;0.63;;;;;;;19.28;54.37;100520.00;4984883;28;20035;-67
2022/12/31 09:25:06;;;;;;;4.13;0.80;;;;;;;19.29;54.50;100532.25;4984819;28;20085;-67
2022/12/31 09:27:46;;;;;;;2.35;0.70;;;;;;;19.30;54.19;100533.94;4985159;28;20432;-67
2022/12/31 09:30:15;;;;;;;3.17;0.75;;;;;;;19.25;54.44;100525.56;4985066;28;20042;-69
2022/12/31 09:32:57;;;;;;;3.72;1.08;;;;;;;19.30;55.61;100523.34;4987878;28;20044;-72
2022/12/31 09:35:46;;;;;;;4.57;1.17;;;;;;;19.31;56.42;100533.78;5003854;28;20875;-68
2022/12/31 09:38:51;;;;;;;5.72;1.20;;;;;;;19.36;56.59;100549.22;4999284;28;20066;-67
2022/12/31 09:41:52;;;;;;;6.67;1.47;;;;;;;19.38;56.33;100531.41;4999079;28;20036;-69
2022/12/31 09:44:31;;;;;;;8.20;1.83;;;;;;;19.37;56.37;100543.78;5002630;28;20033;-67
2022/12/31 09:47:14;;;;;;;5.15;1.42;;;;;;;19.36;56.62;100555.34;4993061;28;20066;-66
2022/12/31 09:50:17;;;;;;;4.13;1.42;;;;;;;19.36;56.72;100536.00;4984440;28;20039;-67
2022/12/31 09:52:58;;;;;;;7.25;1.40;;;;;;;19.39;56.31;100543.63;4987219;28;20041;-71
2022/12/31 09:55:48;;;;;;;6.43;1.55;;;;;;;19.40;56.39;100540.84;4990379;28;20136;-68
2022/12/31 09:58:40;;;;;;;5.45;1.48;;;;;;;19.39;56.23;100547.13;4997763;28;20030;-67
2022/12/31 10:01:30;;;;;;;5.07;1.38;;;;;;;19.39;56.29;100543.63;4996802;28;20108;-66
2022/12/31 10:04:19;;;;;;;5.45;1.33;;;;;;;19.38;56.11;100547.28;4986668;28;20073;-74
2022/12/31 10:07:04;;;;;;;7.57;1.15;;;;;;;19.36;55.99;100547.41;4996216;28;20030;-70
2022/12/31 10:09:58;;;;;;;5.43;1.08;;;;;;;19.36;56.03;100557.16;4990304;28;20026;-69
2022/12/31 10:12:33;;;;;;;5.43;1.83;;;;;;;19.32;55.67;100558.38;4984700;28;20038;-69
2022/12/31 10:15:36;;;;;;;3.92;1.02;;;;;;;19.35;55.71;100558.13;4995089;28;20379;-71
2022/12/31 10:18:07;;;;;;;9.38;1.33;;;;;;;19.35;55.61;100542.25;4988000;28;20348;-67
2022/12/31 10:20:46;;;;;;;4.28;1.00;;;;;;;19.35;55.84;100550.19;4998799;28;20146;-67
2022/12/31 10:23:30;;;;;;;5.88;1.10;;;;;;;19.38;55.63;100548.09;4983218;28;20034;-73
2022/12/31 10:26:18;;;;;;;4.53;1.10;;;;;;;19.35;55.91;100544.91;4984709;28;20033;-66
2022/12/31 10:28:55;;;;;;;3.83;0.90;;;;;;;19.36;55.83;100546.59;4996925;28;20038;-67
2022/12/31 10:31:38;;;;;;;4.38;0.90;;;;;;;19.31;56.16;100528.50;4998157;28;20105;-64
2022/12/31 10:34:25;;;;;;;5.18;0.90;;;;;;;19.35;55.85;100527.22;4997030;28;20152;-69
2022/12/31 10:37:01;;;;;;;3.92;1.00;;;;;;;19.31;55.52;100511.78;4984525;28;20081;-65
2022/12/31 10:40:05;;;;;;;6.28;1.27;;;;;;;19.35;55.80;100521.94;4988184;28;20034;-66
2022/12/31 10:42:52;;;;;;;5.95;1.20;;;;;;;19.35;55.83;100534.34;4985846;28;20034;-71
2022/12/31 10:45:46;;;;;;;5.95;1.17;;;;;;;19.38;55.56;100539.34;4989978;28;20038;-70
2022/12/31 10:48:29;;;;;;;4.85;1.10;;;;;;;19.35;55.79;100536.97;4997655;28;20033;-68
2022/12/31 10:51:27;;;;;;;5.25;1.15;;;;;;;19.39;55.92;100543.63;4988859;28;20038;-72
2022/12/31 10:54:39;;;;;;;3.38;1.17;;;;;;;19.42;55.90;100543.34;4982218;28;20080;-70
2022/12/31 10:57:19;;;;;;;6.15;1.17;;;;;;;19.42;55.47;100550.44;4992207;28;20046;-70
2022/12/31 10:59:44;;;;;;;4.50;1.00;;;;;;;19.42;55.70;100538.06;4989057;28;20042;-69
2022/12/31 11:02:16;;;;;;;4.07;1.10;;;;;;;19.39;55.85;100526.00;4996195;28;20038;-70
2022/12/31 11:04:59;;;;;;;4.38;1.42;;;;;;;19.39;55.81;100554.19;4982664;28;20525;-69
2022/12/31 11:07:49;;;;;;;4.22;1.00;;;;;;;19.42;55.52;100561.03;4983461;28;20038;-67
2022/12/31 11:10:38;;;;;;;3.42;0.90;;;;;;;19.40;55.78;100559.34;4982787;28;20050;-72
2022/12/31 11:13:41;;;;;;;4.53;1.15;;;;;;;19.41;55.50;100565.50;4980537;28;20046;-69
2022/12/31 11:16:25;;;;;;;3.15;0.90;;;;;;;19.41;55.80;100573.41;4983185;28;20037;-69
2022/12/31 11:19:13;;;;;;;;;;;;;;;19.48;55.46;100558.66;4987841;28;20035;-77
2022/12/31 11:22:11;;;;;;;5.25;1.27;;;;;;;19.43;55.43;100558.25;5000625;28;19914;-71
2022/12/31 11:25:05;;;;;;;3.22;1.30;;;;;;;19.44;55.41;100567.84;4988811;28;20041;-71
2022/12/31 11:27:52;;;;;;;3.55;1.17;;;;;;;19.43;55.51;100566.16;4991523;28;20084;-73
2022/12/31 11:30:28;;;;;;;4.95;1.35;;;;;;;19.41;55.30;100573.41;4982939;28;20073;-67
2022/12/31 11:33:18;;;;;;;4.78;1.17;;;;;;;19.42;55.28;100576.88;4981703;28;20057;-69
2022/12/31 11:36:27;;;;;;;4.07;1.15;;;;;;;19.45;55.14;100563.38;4993669;28;20053;-70
2022/12/31 11:39:19;;;;;;;4.03;1.10;;;;;;;19.40;54.99;100559.34;4983388;28;20438;-68
2022/12/31 11:41:52;;;;;;;3.88;1.30;;;;;;;19.37;55.18;100569.38;4987919;28;20570;-68
2022/12/31 11:44:42;;;;;;;3.47;1.23;;;;;;;19.44;54.97;100582.84;4987582;28;20026;-67
2022/12/31 11:47:29;;;;;;;4.05;1.15;;;;;;;19.43;54.82;100568.00;4987413;28;20045;-69
2022/12/31 11:50:14;;;;;;;3.97;1.15;;;;;;;19.40;54.85;100569.91;4985342;28;20509;-70
2022/12/31 11:52:42;;;;;;;3.00;1.10;;;;;;;19.44;54.80;100573.13;4989989;28;20038;-70
2022/12/31 11:55:40;;;;;;;5.78;1.30;;;;;;;19.40;54.77;100567.28;4982055;28;20038;-69
2022/12/31 11:58:13;;;;;;;4.03;1.17;;;;;;;19.38;55.08;100577.16;4945010;28;20042;-68
2022/12/31 12:00:42;;;;;;;5.75;1.20;;;;;;;19.40;54.78;100569.91;4962794;28;20043;-73
2022/12/31 12:03:10;;;;;;;3.60;1.02;;;;;;;19.42;55.05;100580.34;4962193;28;20061;-72
2022/12/31 12:05:37;;;;;;;5.70;1.30;;;;;;;19.41;55.09;100589.28;4962317;28;20030;-69
2022/12/31 12:08:03;;;;;;;7.65;1.20;;;;;;;19.43;54.98;100568.81;4961875;28;20049;-70
2022/12/31 12:10:35;;;;;;;3.35;1.10;;;;;;;19.37;55.15;100575.47;4962431;28;20456;-71